sensor_id;sensor_type;location;lat;lon;timestamp;P1;durP1;ratioP1;P2;durP2;ratioP2
24521;SDS011;12680;57.804;12.190;2022-09-09T00:01:46;1.40;;;0.98;;
24521;SDS011;12680;57.804;12.190;2022-09-09T00:09:32;0.80;;;0.80;;
24521;SDS011;12680;57.804;12.190;2022-09-09T00:12:11;0.80;;;0.80;;
24521;SDS011;12680;57.804;12.190;2022-09-09T00:23:03;1.77;;;0.80;;
24521;SDS011;12680;57.804;12.190;2022-09-09T00:25:49;1.63;;;1.10;;
24521;SDS011;12680;57.804;12.190;2022-09-09T00:28:32;0.80;;;0.80;;
24521;SDS011;12680;57.804;12.190;2022-09-09T00:31:28;1.00;;;0.80;;
24521;SDS011;12680;57.804;12.190;2022-09-09T00:34:19;2.08;;;1.00;;
24521;SDS011;12680;57.804;12.190;2022-09-09T00:36:50;1.92;;;0.90;;
24521;SDS011;12680;57.804;12.190;2022-09-09T00:44:59;1.90;;;0.80;;
24521;SDS011;12680;57.804;12.190;2022-09-09T00:47:40;1.90;;;0.82;;
24521;SDS011;12680;57.804;12.190;2022-09-09T00:50:28;1.35;;;0.80;;
24521;SDS011;12680;57.804;12.190;2022-09-09T00:56:13;1.45;;;0.85;;
24521;SDS011;12680;57.804;12.190;2022-09-09T01:01:33;1.30;;;1.20;;
24521;SDS011;12680;57.804;12.190;2022-09-09T01:04:09;1.90;;;1.10;;
24521;SDS011;12680;57.804;12.190;2022-09-09T01:06:43;2.75;;;1.10;;
24521;SDS011;12680;57.804;12.190;2022-09-09T01:09:40;1.70;;;1.23;;
24521;SDS011;12680;57.804;12.190;2022-09-09T01:12:24;0.73;;;0.73;;
24521;SDS011;12680;57.804;12.190;2022-09-09T01:15:09;2.03;;;1.02;;
24521;SDS011;12680;57.804;12.190;2022-09-09T01:18:06;1.08;;;1.02;;
24521;SDS011;12680;57.804;12.190;2022-09-09T01:20:57;1.00;;;0.90;;
24521;SDS011;12680;57.804;12.190;2022-09-09T01:31:31;2.22;;;1.15;;
24521;SDS011;12680;57.804;12.190;2022-09-09T01:34:08;1.95;;;1.00;;
24521;SDS011;12680;57.804;12.190;2022-09-09T01:37:14;1.30;;;1.15;;
24521;SDS011;12680;57.804;12.190;2022-09-09T01:39:36;3.17;;;1.10;;
24521;SDS011;12680;57.804;12.190;2022-09-09T01:42:06;0.80;;;0.80;;
24521;SDS011;12680;57.804;12.190;2022-09-09T01:44:36;1.00;;;1.00;;
24521;SDS011;12680;57.804;12.190;2022-09-09T01:47:07;1.80;;;1.20;;
24521;SDS011;12680;57.804;12.190;2022-09-09T01:49:35;1.30;;;1.20;;
24521;SDS011;12680;57.804;12.190;2022-09-09T01:52:03;1.85;;;1.10;;
24521;SDS011;12680;57.804;12.190;2022-09-09T01:54:34;1.40;;;1.13;;
24521;SDS011;12680;57.804;12.190;2022-09-09T02:00:06;1.50;;;1.20;;
24521;SDS011;12680;57.804;12.190;2022-09-09T02:07:57;1.45;;;1.10;;
24521;SDS011;12680;57.804;12.190;2022-09-09T02:13:21;1.25;;;1.15;;
24521;SDS011;12680;57.804;12.190;2022-09-09T02:15:54;2.58;;;1.40;;
24521;SDS011;12680;57.804;12.190;2022-09-09T02:18:25;1.30;;;1.20;;
24521;SDS011;12680;57.804;12.190;2022-09-09T02:21:03;2.15;;;1.08;;
24521;SDS011;12680;57.804;12.190;2022-09-09T02:23:37;2.15;;;1.10;;
24521;SDS011;12680;57.804;12.190;2022-09-09T02:26:11;1.17;;;1.08;;
24521;SDS011;12680;57.804;12.190;2022-09-09T02:28:50;1.30;;;1.20;;
24521;SDS011;12680;57.804;12.190;2022-09-09T02:31:20;1.17;;;1.08;;
24521;SDS011;12680;57.804;12.190;2022-09-09T02:33:53;3.50;;;1.30;;
24521;SDS011;12680;57.804;12.190;2022-09-09T02:36:28;2.88;;;1.20;;
24521;SDS011;12680;57.804;12.190;2022-09-09T02:38:59;2.63;;;1.15;;
24521;SDS011;12680;57.804;12.190;2022-09-09T02:41:31;1.83;;;1.45;;
24521;SDS011;12680;57.804;12.190;2022-09-09T02:44:05;1.80;;;1.25;;
24521;SDS011;12680;57.804;12.190;2022-09-09T02:49:10;1.67;;;1.35;;
24521;SDS011;12680;57.804;12.190;2022-09-09T02:52:07;1.23;;;1.13;;
24521;SDS011;12680;57.804;12.190;2022-09-09T02:54:38;1.45;;;1.15;;
24521;SDS011;12680;57.804;12.190;2022-09-09T02:57:22;1.60;;;1.50;;
24521;SDS011;12680;57.804;12.190;2022-09-09T02:59:56;1.63;;;1.33;;
24521;SDS011;12680;57.804;12.190;2022-09-09T03:02:25;1.35;;;1.25;;
24521;SDS011;12680;57.804;12.190;2022-09-09T03:04:57;1.75;;;1.30;;
24521;SDS011;12680;57.804;12.190;2022-09-09T03:07:26;3.80;;;1.73;;
24521;SDS011;12680;57.804;12.190;2022-09-09T03:09:57;1.30;;;1.17;;
24521;SDS011;12680;57.804;12.190;2022-09-09T03:12:25;1.33;;;1.20;;
24521;SDS011;12680;57.804;12.190;2022-09-09T03:14:53;3.63;;;1.55;;
24521;SDS011;12680;57.804;12.190;2022-09-09T03:17:20;1.02;;;0.88;;
24521;SDS011;12680;57.804;12.190;2022-09-09T03:19:47;3.97;;;1.30;;
24521;SDS011;12680;57.804;12.190;2022-09-09T03:24:49;1.48;;;1.25;;
24521;SDS011;12680;57.804;12.190;2022-09-09T03:27:18;1.52;;;1.35;;
24521;SDS011;12680;57.804;12.190;2022-09-09T03:29:52;1.15;;;1.05;;
24521;SDS011;12680;57.804;12.190;2022-09-09T03:32:24;1.65;;;1.40;;
24521;SDS011;12680;57.804;12.190;2022-09-09T03:34:53;1.55;;;1.45;;
24521;SDS011;12680;57.804;12.190;2022-09-09T03:37:28;6.03;;;1.27;;
24521;SDS011;12680;57.804;12.190;2022-09-09T03:39:56;1.30;;;1.20;;
24521;SDS011;12680;57.804;12.190;2022-09-09T03:42:23;1.48;;;1.35;;
24521;SDS011;12680;57.804;12.190;2022-09-09T03:44:55;3.15;;;1.20;;
24521;SDS011;12680;57.804;12.190;2022-09-09T03:47:25;3.85;;;1.67;;
24521;SDS011;12680;57.804;12.190;2022-09-09T03:49:52;1.88;;;1.30;;
24521;SDS011;12680;57.804;12.190;2022-09-09T03:52:23;2.72;;;1.50;;
24521;SDS011;12680;57.804;12.190;2022-09-09T03:54:53;1.55;;;1.42;;
24521;SDS011;12680;57.804;12.190;2022-09-09T03:57:21;1.60;;;1.50;;
24521;SDS011;12680;57.804;12.190;2022-09-09T04:02:27;6.10;;;1.35;;
24521;SDS011;12680;57.804;12.190;2022-09-09T04:04:58;3.13;;;1.20;;
24521;SDS011;12680;57.804;12.190;2022-09-09T04:07:27;2.72;;;1.30;;
24521;SDS011;12680;57.804;12.190;2022-09-09T04:10:06;3.45;;;1.27;;
24521;SDS011;12680;57.804;12.190;2022-09-09T04:12:34;1.73;;;1.48;;
24521;SDS011;12680;57.804;12.190;2022-09-09T04:15:05;1.90;;;1.45;;
24521;SDS011;12680;57.804;12.190;2022-09-09T04:20:04;3.45;;;1.50;;
24521;SDS011;12680;57.804;12.190;2022-09-09T04:22:37;1.85;;;1.40;;
24521;SDS011;12680;57.804;12.190;2022-09-09T04:25:20;3.05;;;1.30;;
24521;SDS011;12680;57.804;12.190;2022-09-09T04:27:53;1.98;;;1.38;;
24521;SDS011;12680;57.804;12.190;2022-09-09T04:30:24;1.80;;;1.40;;
24521;SDS011;12680;57.804;12.190;2022-09-09T04:32:54;1.60;;;1.40;;
24521;SDS011;12680;57.804;12.190;2022-09-09T04:35:26;1.33;;;1.13;;
24521;SDS011;12680;57.804;12.190;2022-09-09T04:37:57;3.70;;;1.50;;
24521;SDS011;12680;57.804;12.190;2022-09-09T04:40:32;2.50;;;1.60;;
24521;SDS011;12680;57.804;12.190;2022-09-09T04:43:07;1.63;;;1.20;;
24521;SDS011;12680;57.804;12.190;2022-09-09T04:45:42;1.50;;;1.40;;
24521;SDS011;12680;57.804;12.190;2022-09-09T04:48:19;5.25;;;1.52;;
24521;SDS011;12680;57.804;12.190;2022-09-09T04:53:25;2.38;;;1.52;;
24521;SDS011;12680;57.804;12.190;2022-09-09T04:56:00;4.63;;;1.20;;
24521;SDS011;12680;57.804;12.190;2022-09-09T04:58:35;2.90;;;1.40;;
24521;SDS011;12680;57.804;12.190;2022-09-09T05:03:38;6.03;;;1.60;;
24521;SDS011;12680;57.804;12.190;2022-09-09T05:06:10;3.30;;;1.20;;
24521;SDS011;12680;57.804;12.190;2022-09-09T05:08:39;4.38;;;1.17;;
24521;SDS011;12680;57.804;12.190;2022-09-09T05:11:30;1.55;;;1.15;;
24521;SDS011;12680;57.804;12.190;2022-09-09T05:14:05;1.55;;;1.42;;
24521;SDS011;12680;57.804;12.190;2022-09-09T05:16:32;2.47;;;1.30;;
24521;SDS011;12680;57.804;12.190;2022-09-09T05:19:04;1.60;;;1.27;;
24521;SDS011;12680;57.804;12.190;2022-09-09T05:21:34;5.25;;;1.50;;
24521;SDS011;12680;57.804;12.190;2022-09-09T05:24:05;1.88;;;1.20;;
24521;SDS011;12680;57.804;12.190;2022-09-09T05:26:44;4.38;;;1.30;;
24521;SDS011;12680;57.804;12.190;2022-09-09T05:29:11;1.73;;;1.40;;
24521;SDS011;12680;57.804;12.190;2022-09-09T05:31:49;3.40;;;1.20;;
24521;SDS011;12680;57.804;12.190;2022-09-09T05:34:19;2.60;;;1.30;;
24521;SDS011;12680;57.804;12.190;2022-09-09T05:36:48;2.17;;;1.20;;
24521;SDS011;12680;57.804;12.190;2022-09-09T05:39:22;2.67;;;1.30;;
24521;SDS011;12680;57.804;12.190;2022-09-09T05:41:49;1.38;;;1.27;;
24521;SDS011;12680;57.804;12.190;2022-09-09T05:44:17;2.83;;;1.95;;
24521;SDS011;12680;57.804;12.190;2022-09-09T05:46:52;5.35;;;1.40;;
24521;SDS011;12680;57.804;12.190;2022-09-09T05:49:20;2.88;;;1.65;;
24521;SDS011;12680;57.804;12.190;2022-09-09T05:51:53;2.08;;;1.30;;
24521;SDS011;12680;57.804;12.190;2022-09-09T05:54:26;3.97;;;1.60;;
24521;SDS011;12680;57.804;12.190;2022-09-09T05:56:54;1.50;;;1.40;;
24521;SDS011;12680;57.804;12.190;2022-09-09T05:59:30;1.65;;;1.35;;
24521;SDS011;12680;57.804;12.190;2022-09-09T06:04:32;2.25;;;1.40;;
24521;SDS011;12680;57.804;12.190;2022-09-09T06:07:00;4.15;;;1.48;;
24521;SDS011;12680;57.804;12.190;2022-09-09T06:09:35;2.25;;;1.30;;
24521;SDS011;12680;57.804;12.190;2022-09-09T06:12:10;4.88;;;1.63;;
24521;SDS011;12680;57.804;12.190;2022-09-09T06:14:40;3.75;;;1.65;;
24521;SDS011;12680;57.804;12.190;2022-09-09T06:17:14;5.47;;;1.42;;
24521;SDS011;12680;57.804;12.190;2022-09-09T06:19:42;2.75;;;1.20;;
24521;SDS011;12680;57.804;12.190;2022-09-09T06:22:17;1.63;;;1.33;;
24521;SDS011;12680;57.804;12.190;2022-09-09T06:24:48;2.65;;;1.42;;
24521;SDS011;12680;57.804;12.190;2022-09-09T06:27:22;3.45;;;1.40;;
24521;SDS011;12680;57.804;12.190;2022-09-09T06:29:54;3.30;;;1.50;;
24521;SDS011;12680;57.804;12.190;2022-09-09T06:32:25;1.45;;;1.20;;
24521;SDS011;12680;57.804;12.190;2022-09-09T06:34:53;3.22;;;1.30;;
24521;SDS011;12680;57.804;12.190;2022-09-09T06:37:21;3.47;;;1.40;;
24521;SDS011;12680;57.804;12.190;2022-09-09T06:39:58;3.80;;;1.33;;
24521;SDS011;12680;57.804;12.190;2022-09-09T06:42:30;3.17;;;1.50;;
24521;SDS011;12680;57.804;12.190;2022-09-09T06:44:58;10.45;;;1.60;;
24521;SDS011;12680;57.804;12.190;2022-09-09T06:47:30;3.17;;;1.35;;
24521;SDS011;12680;57.804;12.190;2022-09-09T06:50:03;1.73;;;1.40;;
24521;SDS011;12680;57.804;12.190;2022-09-09T06:52:32;2.20;;;1.38;;
24521;SDS011;12680;57.804;12.190;2022-09-09T06:55:06;4.22;;;1.52;;
24521;SDS011;12680;57.804;12.190;2022-09-09T06:57:35;2.83;;;1.42;;
24521;SDS011;12680;57.804;12.190;2022-09-09T07:00:06;3.08;;;1.27;;
24521;SDS011;12680;57.804;12.190;2022-09-09T07:02:38;3.13;;;1.70;;
24521;SDS011;12680;57.804;12.190;2022-09-09T07:05:06;3.35;;;1.40;;
24521;SDS011;12680;57.804;12.190;2022-09-09T07:07:36;3.85;;;1.30;;
24521;SDS011;12680;57.804;12.190;2022-09-09T07:10:07;1.92;;;1.45;;
24521;SDS011;12680;57.804;12.190;2022-09-09T07:12:42;5.28;;;1.50;;
24521;SDS011;12680;57.804;12.190;2022-09-09T07:15:13;5.78;;;1.50;;
24521;SDS011;12680;57.804;12.190;2022-09-09T07:17:41;2.00;;;1.48;;
24521;SDS011;12680;57.804;12.190;2022-09-09T07:20:11;1.98;;;1.63;;
24521;SDS011;12680;57.804;12.190;2022-09-09T07:22:38;1.85;;;1.70;;
24521;SDS011;12680;57.804;12.190;2022-09-09T07:25:08;1.63;;;1.30;;
24521;SDS011;12680;57.804;12.190;2022-09-09T07:27:44;1.52;;;1.30;;
24521;SDS011;12680;57.804;12.190;2022-09-09T07:30:15;2.72;;;1.77;;
24521;SDS011;12680;57.804;12.190;2022-09-09T07:32:52;4.28;;;1.17;;
24521;SDS011;12680;57.804;12.190;2022-09-09T07:35:23;3.63;;;1.25;;
24521;SDS011;12680;57.804;12.190;2022-09-09T07:37:54;1.67;;;1.42;;
24521;SDS011;12680;57.804;12.190;2022-09-09T07:40:28;2.30;;;1.33;;
24521;SDS011;12680;57.804;12.190;2022-09-09T07:42:56;2.33;;;1.52;;
24521;SDS011;12680;57.804;12.190;2022-09-09T07:45:27;2.30;;;1.38;;
24521;SDS011;12680;57.804;12.190;2022-09-09T07:47:57;3.00;;;1.40;;
24521;SDS011;12680;57.804;12.190;2022-09-09T07:50:31;2.70;;;1.55;;
24521;SDS011;12680;57.804;12.190;2022-09-09T07:52:59;5.03;;;1.75;;
24521;SDS011;12680;57.804;12.190;2022-09-09T07:55:31;1.83;;;1.35;;
24521;SDS011;12680;57.804;12.190;2022-09-09T07:57:58;3.17;;;1.40;;
24521;SDS011;12680;57.804;12.190;2022-09-09T08:00:33;2.03;;;1.30;;
24521;SDS011;12680;57.804;12.190;2022-09-09T08:03:00;2.63;;;1.40;;
24521;SDS011;12680;57.804;12.190;2022-09-09T08:05:31;1.75;;;1.30;;
24521;SDS011;12680;57.804;12.190;2022-09-09T08:08:01;4.47;;;1.50;;
24521;SDS011;12680;57.804;12.190;2022-09-09T08:10:31;2.75;;;1.60;;
24521;SDS011;12680;57.804;12.190;2022-09-09T08:13:01;4.18;;;1.60;;
24521;SDS011;12680;57.804;12.190;2022-09-09T08:15:43;2.75;;;1.50;;
24521;SDS011;12680;57.804;12.190;2022-09-09T08:18:22;6.20;;;1.88;;
24521;SDS011;12680;57.804;12.190;2022-09-09T08:20:53;2.42;;;1.55;;
24521;SDS011;12680;57.804;12.190;2022-09-09T08:23:20;3.85;;;1.63;;
24521;SDS011;12680;57.804;12.190;2022-09-09T08:25:47;3.90;;;1.48;;
24521;SDS011;12680;57.804;12.190;2022-09-09T08:28:16;2.88;;;1.70;;
24521;SDS011;12680;57.804;12.190;2022-09-09T08:30:45;3.70;;;1.42;;
24521;SDS011;12680;57.804;12.190;2022-09-09T08:33:20;2.88;;;1.95;;
24521;SDS011;12680;57.804;12.190;2022-09-09T08:38:19;2.17;;;1.35;;
24521;SDS011;12680;57.804;12.190;2022-09-09T08:40:53;2.65;;;1.52;;
24521;SDS011;12680;57.804;12.190;2022-09-09T08:43:32;3.13;;;1.73;;
24521;SDS011;12680;57.804;12.190;2022-09-09T08:46:11;2.55;;;1.48;;
24521;SDS011;12680;57.804;12.190;2022-09-09T08:51:59;4.28;;;1.33;;
24521;SDS011;12680;57.804;12.190;2022-09-09T08:54:36;3.60;;;1.60;;
24521;SDS011;12680;57.804;12.190;2022-09-09T08:57:22;3.97;;;1.30;;
24521;SDS011;12680;57.804;12.190;2022-09-09T08:59:55;3.22;;;1.50;;
24521;SDS011;12680;57.804;12.190;2022-09-09T09:05:09;6.80;;;1.67;;
24521;SDS011;12680;57.804;12.190;2022-09-09T09:13:24;3.63;;;1.60;;
24521;SDS011;12680;57.804;12.190;2022-09-09T09:16:50;3.72;;;1.45;;
24521;SDS011;12680;57.804;12.190;2022-09-09T09:18:59;3.05;;;1.38;;
24521;SDS011;12680;57.804;12.190;2022-09-09T09:21:43;1.25;;;1.20;;
24521;SDS011;12680;57.804;12.190;2022-09-09T09:26:53;4.00;;;1.60;;
24521;SDS011;12680;57.804;12.190;2022-09-09T09:29:24;2.42;;;1.63;;
24521;SDS011;12680;57.804;12.190;2022-09-09T09:31:54;2.53;;;1.50;;
24521;SDS011;12680;57.804;12.190;2022-09-09T09:34:23;4.65;;;1.38;;
24521;SDS011;12680;57.804;12.190;2022-09-09T09:36:57;3.08;;;1.60;;
24521;SDS011;12680;57.804;12.190;2022-09-09T09:39:30;2.70;;;1.33;;
24521;SDS011;12680;57.804;12.190;2022-09-09T09:42:22;2.08;;;1.52;;
24521;SDS011;12680;57.804;12.190;2022-09-09T09:44:54;2.38;;;1.70;;
24521;SDS011;12680;57.804;12.190;2022-09-09T09:47:35;3.78;;;1.60;;
24521;SDS011;12680;57.804;12.190;2022-09-09T09:50:17;3.78;;;1.60;;
24521;SDS011;12680;57.804;12.190;2022-09-09T09:53:17;1.55;;;1.40;;
24521;SDS011;12680;57.804;12.190;2022-09-09T09:55:46;3.38;;;1.58;;
24521;SDS011;12680;57.804;12.190;2022-09-09T09:58:20;3.65;;;1.45;;
24521;SDS011;12680;57.804;12.190;2022-09-09T10:00:52;2.25;;;1.42;;
24521;SDS011;12680;57.804;12.190;2022-09-09T10:05:53;2.15;;;1.40;;
24521;SDS011;12680;57.804;12.190;2022-09-09T10:08:26;5.53;;;1.95;;
24521;SDS011;12680;57.804;12.190;2022-09-09T10:16:37;5.68;;;1.52;;
24521;SDS011;12680;57.804;12.190;2022-09-09T10:19:16;3.47;;;1.50;;
24521;SDS011;12680;57.804;12.190;2022-09-09T10:25:14;5.57;;;1.50;;
24521;SDS011;12680;57.804;12.190;2022-09-09T10:33:37;3.42;;;1.55;;
24521;SDS011;12680;57.804;12.190;2022-09-09T10:36:39;3.25;;;1.50;;
24521;SDS011;12680;57.804;12.190;2022-09-09T10:42:36;3.70;;;1.75;;
24521;SDS011;12680;57.804;12.190;2022-09-09T10:53:33;2.95;;;2.08;;
24521;SDS011;12680;57.804;12.190;2022-09-09T10:56:10;5.10;;;1.90;;
24521;SDS011;12680;57.804;12.190;2022-09-09T10:58:53;3.78;;;1.95;;
24521;SDS011;12680;57.804;12.190;2022-09-09T11:01:40;8.40;;;2.33;;
24521;SDS011;12680;57.804;12.190;2022-09-09T11:04:31;2.47;;;1.75;;
24521;SDS011;12680;57.804;12.190;2022-09-09T11:07:05;2.38;;;1.70;;
24521;SDS011;12680;57.804;12.190;2022-09-09T11:09:49;5.45;;;1.77;;
24521;SDS011;12680;57.804;12.190;2022-09-09T11:12:22;1.80;;;1.70;;
24521;SDS011;12680;57.804;12.190;2022-09-09T11:14:53;2.88;;;1.73;;
24521;SDS011;12680;57.804;12.190;2022-09-09T11:17:45;3.13;;;1.75;;
24521;SDS011;12680;57.804;12.190;2022-09-09T11:20:18;3.33;;;1.60;;
24521;SDS011;12680;57.804;12.190;2022-09-09T11:22:58;3.55;;;1.90;;
24521;SDS011;12680;57.804;12.190;2022-09-09T11:25:51;3.10;;;2.10;;
24521;SDS011;12680;57.804;12.190;2022-09-09T11:37:05;5.35;;;2.00;;
24521;SDS011;12680;57.804;12.190;2022-09-09T11:39:53;2.22;;;1.90;;
24521;SDS011;12680;57.804;12.190;2022-09-09T11:42:24;3.50;;;1.92;;
24521;SDS011;12680;57.804;12.190;2022-09-09T11:47:35;3.72;;;2.17;;
24521;SDS011;12680;57.804;12.190;2022-09-09T11:52:43;3.55;;;2.10;;
24521;SDS011;12680;57.804;12.190;2022-09-09T12:09:05;7.82;;;2.40;;
24521;SDS011;12680;57.804;12.190;2022-09-09T12:11:40;3.90;;;2.17;;
24521;SDS011;12680;57.804;12.190;2022-09-09T12:14:18;4.28;;;2.28;;
24521;SDS011;12680;57.804;12.190;2022-09-09T12:17:18;4.03;;;2.20;;
24521;SDS011;12680;57.804;12.190;2022-09-09T12:19:47;3.95;;;1.95;;
24521;SDS011;12680;57.804;12.190;2022-09-09T12:22:26;5.47;;;2.22;;
24521;SDS011;12680;57.804;12.190;2022-09-09T12:25:20;5.43;;;2.47;;
24521;SDS011;12680;57.804;12.190;2022-09-09T12:30:46;8.50;;;2.38;;
24521;SDS011;12680;57.804;12.190;2022-09-09T12:33:22;3.55;;;2.05;;
24521;SDS011;12680;57.804;12.190;2022-09-09T12:35:56;3.15;;;2.28;;
24521;SDS011;12680;57.804;12.190;2022-09-09T12:38:45;3.88;;;2.33;;
24521;SDS011;12680;57.804;12.190;2022-09-09T12:41:20;3.50;;;1.88;;
24521;SDS011;12680;57.804;12.190;2022-09-09T12:44:02;2.97;;;2.08;;
24521;SDS011;12680;57.804;12.190;2022-09-09T12:46:39;6.85;;;2.70;;
24521;SDS011;12680;57.804;12.190;2022-09-09T12:49:32;7.10;;;2.25;;
24521;SDS011;12680;57.804;12.190;2022-09-09T12:55:14;4.95;;;2.22;;
24521;SDS011;12680;57.804;12.190;2022-09-09T12:57:48;2.88;;;1.88;;
24521;SDS011;12680;57.804;12.190;2022-09-09T13:00:20;7.28;;;2.85;;
24521;SDS011;12680;57.804;12.190;2022-09-09T13:02:53;4.25;;;3.22;;
24521;SDS011;12680;57.804;12.190;2022-09-09T13:08:01;5.95;;;4.60;;
24521;SDS011;12680;57.804;12.190;2022-09-09T13:10:32;6.00;;;3.20;;
24521;SDS011;12680;57.804;12.190;2022-09-09T13:13:28;4.80;;;2.53;;
24521;SDS011;12680;57.804;12.190;2022-09-09T13:16:05;5.13;;;2.85;;
24521;SDS011;12680;57.804;12.190;2022-09-09T13:18:44;3.08;;;2.78;;
24521;SDS011;12680;57.804;12.190;2022-09-09T13:21:15;3.90;;;2.53;;
24521;SDS011;12680;57.804;12.190;2022-09-09T13:23:48;4.93;;;3.10;;
24521;SDS011;12680;57.804;12.190;2022-09-09T13:26:25;3.97;;;2.60;;
24521;SDS011;12680;57.804;12.190;2022-09-09T13:28:53;3.72;;;2.28;;
24521;SDS011;12680;57.804;12.190;2022-09-09T13:31:28;7.53;;;2.67;;
24521;SDS011;12680;57.804;12.190;2022-09-09T13:33:59;3.20;;;2.58;;
24521;SDS011;12680;57.804;12.190;2022-09-09T13:36:40;6.00;;;2.40;;
24521;SDS011;12680;57.804;12.190;2022-09-09T13:39:17;5.03;;;2.50;;
24521;SDS011;12680;57.804;12.190;2022-09-09T13:41:45;4.53;;;2.43;;
24521;SDS011;12680;57.804;12.190;2022-09-09T13:44:23;4.10;;;2.67;;
24521;SDS011;12680;57.804;12.190;2022-09-09T13:47:02;4.00;;;2.67;;
24521;SDS011;12680;57.804;12.190;2022-09-09T13:49:43;6.32;;;2.45;;
24521;SDS011;12680;57.804;12.190;2022-09-09T13:52:16;4.57;;;2.80;;
24521;SDS011;12680;57.804;12.190;2022-09-09T13:54:50;5.22;;;2.20;;
24521;SDS011;12680;57.804;12.190;2022-09-09T13:57:19;5.10;;;2.30;;
24521;SDS011;12680;57.804;12.190;2022-09-09T13:59:52;3.92;;;2.05;;
24521;SDS011;12680;57.804;12.190;2022-09-09T14:02:32;5.07;;;2.75;;
24521;SDS011;12680;57.804;12.190;2022-09-09T14:05:00;4.70;;;2.40;;
24521;SDS011;12680;57.804;12.190;2022-09-09T14:07:27;5.47;;;3.13;;
24521;SDS011;12680;57.804;12.190;2022-09-09T14:09:56;4.35;;;2.50;;
24521;SDS011;12680;57.804;12.190;2022-09-09T14:12:23;6.63;;;2.60;;
24521;SDS011;12680;57.804;12.190;2022-09-09T14:14:51;3.50;;;2.67;;
24521;SDS011;12680;57.804;12.190;2022-09-09T14:17:18;5.22;;;2.70;;
24521;SDS011;12680;57.804;12.190;2022-09-09T14:19:57;3.22;;;2.47;;
24521;SDS011;12680;57.804;12.190;2022-09-09T14:22:27;4.15;;;2.50;;
24521;SDS011;12680;57.804;12.190;2022-09-09T14:24:57;2.70;;;2.10;;
24521;SDS011;12680;57.804;12.190;2022-09-09T14:27:28;2.65;;;2.08;;
24521;SDS011;12680;57.804;12.190;2022-09-09T14:29:56;4.03;;;2.35;;
24521;SDS011;12680;57.804;12.190;2022-09-09T14:32:26;2.83;;;1.92;;
24521;SDS011;12680;57.804;12.190;2022-09-09T14:34:57;2.28;;;2.00;;
24521;SDS011;12680;57.804;12.190;2022-09-09T14:37:24;6.50;;;2.22;;
24521;SDS011;12680;57.804;12.190;2022-09-09T14:39:52;8.07;;;2.42;;
24521;SDS011;12680;57.804;12.190;2022-09-09T14:42:20;3.90;;;2.67;;
24521;SDS011;12680;57.804;12.190;2022-09-09T14:44:52;6.53;;;2.45;;
24521;SDS011;12680;57.804;12.190;2022-09-09T14:47:22;4.03;;;2.50;;
24521;SDS011;12680;57.804;12.190;2022-09-09T14:49:49;6.82;;;2.80;;
24521;SDS011;12680;57.804;12.190;2022-09-09T14:52:16;5.07;;;2.95;;
24521;SDS011;12680;57.804;12.190;2022-09-09T14:54:45;4.93;;;2.47;;
24521;SDS011;12680;57.804;12.190;2022-09-09T14:57:12;4.50;;;2.25;;
24521;SDS011;12680;57.804;12.190;2022-09-09T14:59:40;2.90;;;2.40;;
24521;SDS011;12680;57.804;12.190;2022-09-09T15:02:08;9.32;;;2.70;;
24521;SDS011;12680;57.804;12.190;2022-09-09T15:04:40;4.53;;;2.63;;
24521;SDS011;12680;57.804;12.190;2022-09-09T15:07:08;5.88;;;2.47;;
24521;SDS011;12680;57.804;12.190;2022-09-09T15:09:43;7.05;;;2.40;;
24521;SDS011;12680;57.804;12.190;2022-09-09T15:12:15;2.85;;;2.20;;
24521;SDS011;12680;57.804;12.190;2022-09-09T15:14:45;5.85;;;2.80;;
24521;SDS011;12680;57.804;12.190;2022-09-09T15:17:14;5.90;;;2.55;;
24521;SDS011;12680;57.804;12.190;2022-09-09T15:19:41;3.80;;;2.35;;
24521;SDS011;12680;57.804;12.190;2022-09-09T15:22:13;4.78;;;3.13;;
24521;SDS011;12680;57.804;12.190;2022-09-09T15:24:45;5.13;;;2.83;;
24521;SDS011;12680;57.804;12.190;2022-09-09T15:27:17;7.65;;;2.97;;
24521;SDS011;12680;57.804;12.190;2022-09-09T15:29:44;3.72;;;2.78;;
24521;SDS011;12680;57.804;12.190;2022-09-09T15:32:13;5.95;;;2.40;;
24521;SDS011;12680;57.804;12.190;2022-09-09T15:34:40;3.47;;;2.38;;
24521;SDS011;12680;57.804;12.190;2022-09-09T15:37:10;2.70;;;2.22;;
24521;SDS011;12680;57.804;12.190;2022-09-09T15:39:42;3.97;;;2.30;;
24521;SDS011;12680;57.804;12.190;2022-09-09T15:42:10;4.82;;;2.03;;
24521;SDS011;12680;57.804;12.190;2022-09-09T15:44:38;3.00;;;2.33;;
24521;SDS011;12680;57.804;12.190;2022-09-09T15:47:09;9.95;;;5.72;;
24521;SDS011;12680;57.804;12.190;2022-09-09T15:49:39;4.55;;;3.00;;
24521;SDS011;12680;57.804;12.190;2022-09-09T15:52:06;4.72;;;2.53;;
24521;SDS011;12680;57.804;12.190;2022-09-09T15:54:37;3.22;;;1.83;;
24521;SDS011;12680;57.804;12.190;2022-09-09T15:57:06;5.70;;;3.15;;
24521;SDS011;12680;57.804;12.190;2022-09-09T15:59:35;5.43;;;2.90;;
24521;SDS011;12680;57.804;12.190;2022-09-09T16:02:05;2.57;;;2.30;;
24521;SDS011;12680;57.804;12.190;2022-09-09T16:04:33;2.42;;;2.08;;
24521;SDS011;12680;57.804;12.190;2022-09-09T16:07:05;3.03;;;2.30;;
24521;SDS011;12680;57.804;12.190;2022-09-09T16:09:33;5.40;;;2.70;;
24521;SDS011;12680;57.804;12.190;2022-09-09T16:12:02;3.17;;;2.30;;
24521;SDS011;12680;57.804;12.190;2022-09-09T16:14:36;3.33;;;2.33;;
24521;SDS011;12680;57.804;12.190;2022-09-09T16:17:06;2.78;;;2.40;;
24521;SDS011;12680;57.804;12.190;2022-09-09T16:19:33;4.03;;;2.83;;
24521;SDS011;12680;57.804;12.190;2022-09-09T16:24:33;11.20;;;5.35;;
24521;SDS011;12680;57.804;12.190;2022-09-09T16:27:00;6.15;;;3.90;;
24521;SDS011;12680;57.804;12.190;2022-09-09T16:29:31;3.45;;;2.92;;
24521;SDS011;12680;57.804;12.190;2022-09-09T16:31:59;6.75;;;2.53;;
24521;SDS011;12680;57.804;12.190;2022-09-09T16:34:30;2.65;;;1.92;;
24521;SDS011;12680;57.804;12.190;2022-09-09T16:36:57;2.85;;;1.90;;
24521;SDS011;12680;57.804;12.190;2022-09-09T16:39:26;3.22;;;2.53;;
24521;SDS011;12680;57.804;12.190;2022-09-09T16:41:54;2.28;;;2.00;;
24521;SDS011;12680;57.804;12.190;2022-09-09T16:44:24;2.08;;;1.52;;
24521;SDS011;12680;57.804;12.190;2022-09-09T16:46:52;3.67;;;1.75;;
24521;SDS011;12680;57.804;12.190;2022-09-09T16:49:26;2.75;;;1.92;;
24521;SDS011;12680;57.804;12.190;2022-09-09T16:51:56;1.80;;;1.70;;
24521;SDS011;12680;57.804;12.190;2022-09-09T16:54:25;2.25;;;1.58;;
24521;SDS011;12680;57.804;12.190;2022-09-09T16:56:55;2.03;;;1.80;;
24521;SDS011;12680;57.804;12.190;2022-09-09T16:59:23;1.70;;;1.60;;
24521;SDS011;12680;57.804;12.190;2022-09-09T17:01:58;1.63;;;1.52;;
24521;SDS011;12680;57.804;12.190;2022-09-09T17:04:31;2.80;;;1.88;;
24521;SDS011;12680;57.804;12.190;2022-09-09T17:07:04;1.90;;;1.60;;
24521;SDS011;12680;57.804;12.190;2022-09-09T17:09:32;2.55;;;1.90;;
24521;SDS011;12680;57.804;12.190;2022-09-09T17:12:03;1.88;;;1.40;;
24521;SDS011;12680;57.804;12.190;2022-09-09T17:14:35;1.83;;;1.63;;
24521;SDS011;12680;57.804;12.190;2022-09-09T17:17:03;2.20;;;1.50;;
24521;SDS011;12680;57.804;12.190;2022-09-09T17:19:58;1.40;;;1.30;;
24521;SDS011;12680;57.804;12.190;2022-09-09T17:22:35;1.90;;;1.20;;
24521;SDS011;12680;57.804;12.190;2022-09-09T17:25:14;1.50;;;1.40;;
24521;SDS011;12680;57.804;12.190;2022-09-09T17:27:44;2.88;;;1.30;;
24521;SDS011;12680;57.804;12.190;2022-09-09T17:30:15;3.22;;;1.50;;
24521;SDS011;12680;57.804;12.190;2022-09-09T17:32:47;2.08;;;1.70;;
24521;SDS011;12680;57.804;12.190;2022-09-09T17:35:20;10.13;;;4.30;;
24521;SDS011;12680;57.804;12.190;2022-09-09T17:37:49;12.60;;;4.70;;